createdAt,value
2023-02-17T00:01:21.215Z,63.77
2023-02-17T00:03:49.705Z,63.86
2023-02-17T00:06:19.767Z,63.64
2023-02-17T00:08:49.580Z,63.79
2023-02-17T00:11:18.193Z,63.73
2023-02-17T00:13:46.757Z,64.29
2023-02-17T00:16:18.497Z,64.63
2023-02-17T00:18:47.139Z,64.36
2023-02-17T00:21:17.149Z,65.43
2023-02-17T00:23:46.160Z,65.11
2023-02-17T00:26:16.362Z,65.64
2023-02-17T00:28:45.007Z,66.58
2023-02-17T00:31:16.155Z,66.29
2023-02-17T00:33:44.610Z,67.08
2023-02-17T00:36:14.758Z,67.36
2023-02-17T00:38:43.030Z,67.60
2023-02-17T00:41:11.014Z,68.09
2023-02-17T00:43:40.792Z,68.01
2023-02-17T00:46:09.093Z,67.54
2023-02-17T00:48:37.579Z,67.48
2023-02-17T00:51:06.259Z,67.73
2023-02-17T00:53:36.496Z,67.25
2023-02-17T00:56:05.678Z,67.31
2023-02-17T00:58:34.050Z,67.56
2023-02-17T01:01:03.828Z,67.71
2023-02-17T01:03:32.573Z,67.43
2023-02-17T01:06:00.717Z,67.75
2023-02-17T01:08:28.996Z,67.92
2023-02-17T01:10:58.157Z,68.09
2023-02-17T01:13:26.451Z,68.37
2023-02-17T01:15:55.217Z,68.37
2023-02-17T01:18:25.319Z,68.43
2023-02-17T01:20:53.575Z,68.07
2023-02-17T01:23:21.902Z,67.65
2023-02-17T01:25:50.637Z,68.30
2023-02-17T01:28:21.219Z,68.20
2023-02-17T01:30:50.080Z,68.69
2023-02-17T01:33:18.468Z,68.29
2023-02-17T01:35:48.020Z,68.54
2023-02-17T01:38:16.275Z,68.07
2023-02-17T01:40:48.143Z,68.68
2023-02-17T01:43:17.442Z,67.85
2023-02-17T01:45:48.040Z,68.18
2023-02-17T01:48:18.118Z,68.05
2023-02-17T01:50:50.709Z,68.00
2023-02-17T01:53:21.240Z,68.51
2023-02-17T01:55:49.660Z,68.54
2023-02-17T01:58:20.598Z,68.62
2023-02-17T02:00:49.286Z,69.77
2023-02-17T02:03:17.656Z,70.07
2023-02-17T02:05:45.841Z,70.45
2023-02-17T02:08:16.074Z,70.64
2023-02-17T02:10:44.122Z,71.39
2023-02-17T02:13:12.491Z,70.85
2023-02-17T02:15:44.333Z,71.01
2023-02-17T02:18:21.530Z,70.40
2023-02-17T02:21:22.786Z,69.77
2023-02-17T02:23:59.669Z,69.74
2023-02-17T02:26:58.057Z,70.03
2023-02-17T02:29:53.008Z,69.26
2023-02-17T02:32:41.005Z,69.14
2023-02-17T02:35:15.064Z,68.70
2023-02-17T02:37:47.433Z,68.97
2023-02-17T02:40:16.749Z,69.48
2023-02-17T02:42:45.673Z,69.59
2023-02-17T02:45:14.066Z,69.86
2023-02-17T02:47:48.873Z,70.06
2023-02-17T02:50:22.733Z,70.28
2023-02-17T02:53:02.875Z,70.59
2023-02-17T02:55:42.841Z,70.01
2023-02-17T02:58:16.500Z,70.61
2023-02-17T03:00:53.933Z,70.74
2023-02-17T03:03:30.461Z,70.97
2023-02-17T03:06:05.179Z,71.41
2023-02-17T03:08:37.220Z,71.64
2023-02-17T03:11:05.780Z,71.65
2023-02-17T03:13:42.861Z,71.97
2023-02-17T03:16:14.855Z,71.91
2023-02-17T03:18:44.271Z,72.17
2023-02-17T03:21:16.130Z,72.76
2023-02-17T03:23:44.471Z,72.77
2023-02-17T03:26:12.777Z,73.13
2023-02-17T03:28:40.884Z,72.92
2023-02-17T03:31:09.216Z,73.38
2023-02-17T03:33:37.328Z,74.57
2023-02-17T03:36:08.081Z,75.45
2023-02-17T03:38:36.260Z,76.13
2023-02-17T03:41:04.822Z,76.40
2023-02-17T03:43:32.861Z,76.22
2023-02-17T03:46:01.188Z,76.74
2023-02-17T03:48:29.281Z,77.02
2023-02-17T03:50:57.606Z,76.85
2023-02-17T03:53:26.956Z,77.17
2023-02-17T03:55:55.329Z,77.06
2023-02-17T03:58:23.729Z,77.59
2023-02-17T04:00:51.941Z,78.08
2023-02-17T04:03:20.010Z,78.19
2023-02-17T04:05:48.265Z,78.11
2023-02-17T04:08:16.316Z,78.01
2023-02-17T04:10:46.040Z,78.39
2023-02-17T04:13:14.006Z,77.94
2023-02-17T04:15:42.325Z,77.36
2023-02-17T04:18:10.382Z,77.04
2023-02-17T04:20:38.633Z,77.73
2023-02-17T04:23:06.674Z,77.32
2023-02-17T04:25:35.335Z,77.59
2023-02-17T04:28:05.497Z,78.18
2023-02-17T04:30:34.069Z,77.44
2023-02-17T04:33:02.655Z,77.29
2023-02-17T04:35:30.976Z,76.74
2023-02-17T04:37:59.022Z,77.65
2023-02-17T04:40:27.387Z,76.87
2023-02-17T04:42:55.369Z,77.34
2023-02-17T04:45:25.809Z,76.85
2023-02-17T04:47:53.784Z,76.52
2023-02-17T04:50:22.310Z,76.27
2023-02-17T04:52:50.347Z,77.05
2023-02-17T04:55:18.896Z,77.18
2023-02-17T04:57:46.893Z,77.07
2023-02-17T05:00:15.734Z,76.78
2023-02-17T05:02:45.106Z,77.07
2023-02-17T05:05:15.173Z,77.04
2023-02-17T05:07:43.412Z,78.32
2023-02-17T05:10:12.012Z,77.61
2023-02-17T05:12:40.466Z,78.57
2023-02-17T05:15:09.517Z,77.97
2023-02-17T05:17:37.947Z,78.37
2023-02-17T05:20:09.582Z,78.62
2023-02-17T05:22:37.695Z,78.93
2023-02-17T05:25:06.675Z,79.49
2023-02-17T05:27:34.996Z,79.77
2023-02-17T05:30:03.361Z,79.82
2023-02-17T05:32:31.499Z,80.27
2023-02-17T05:34:59.956Z,80.26
2023-02-17T05:37:29.348Z,80.18
2023-02-17T05:39:57.568Z,80.71
2023-02-17T05:42:28.689Z,80.94
2023-02-17T05:44:57.078Z,80.74
2023-02-17T05:47:27.551Z,81.21
2023-02-17T05:49:55.944Z,80.91
2023-02-17T05:52:24.006Z,81.43
2023-02-17T05:54:53.609Z,81.15
2023-02-17T05:57:21.550Z,82.05
2023-02-17T05:59:49.845Z,82.33
2023-02-17T06:02:17.798Z,82.35
2023-02-17T06:04:46.396Z,83.02
2023-02-17T06:07:15.584Z,82.83
2023-02-17T06:09:45.342Z,83.65
2023-02-17T06:12:16.465Z,83.61
2023-02-17T06:14:44.693Z,84.46
2023-02-17T06:17:12.697Z,84.26
2023-02-17T06:19:40.940Z,84.68
2023-02-17T06:22:09.006Z,84.29
2023-02-17T06:24:37.694Z,84.12
2023-02-17T06:27:05.802Z,85.00
2023-02-17T06:29:35.481Z,83.58
2023-02-17T06:32:03.680Z,84.08
2023-02-17T06:34:31.944Z,84.47
2023-02-17T06:37:00.081Z,84.40
2023-02-17T06:39:28.335Z,84.12
2023-02-17T06:41:56.323Z,84.68
2023-02-17T06:44:24.618Z,84.79
2023-02-17T06:46:54.001Z,85.35
2023-02-17T06:49:23.055Z,85.83
2023-02-17T06:51:51.050Z,85.68
2023-02-17T06:54:19.395Z,85.64
2023-02-17T06:56:47.742Z,85.40
2023-02-17T06:59:15.978Z,87.09
2023-02-17T07:01:44.049Z,87.20
2023-02-17T07:04:13.628Z,87.65
2023-02-17T07:06:41.751Z,86.73
2023-02-17T07:09:11.483Z,86.89
2023-02-17T07:11:39.500Z,86.94
2023-02-17T07:14:07.732Z,88.00
2023-02-17T07:16:35.846Z,88.27
2023-02-17T07:19:04.150Z,87.21
2023-02-17T07:21:33.526Z,88.50
2023-02-17T07:24:01.820Z,87.83
2023-02-17T07:26:29.893Z,87.62
2023-02-17T07:28:58.553Z,88.03
2023-02-17T07:31:26.598Z,88.47
2023-02-17T07:33:54.975Z,88.92
2023-02-17T07:36:23.036Z,89.46
2023-02-17T07:38:52.889Z,88.88
2023-02-17T07:41:24.595Z,89.64
2023-02-17T07:43:57.468Z,89.90
2023-02-17T07:46:25.862Z,90.28
2023-02-17T07:48:54.830Z,90.70
2023-02-17T07:51:23.952Z,90.47
2023-02-17T07:53:54.955Z,90.74
2023-02-17T07:56:23.563Z,90.32
2023-02-17T07:58:52.054Z,90.30
2023-02-17T08:01:22.274Z,90.38
2023-02-17T08:03:51.226Z,90.25
2023-02-17T08:06:20.741Z,90.09
2023-02-17T08:09:07.316Z,89.90
2023-02-17T08:11:54.887Z,90.20
2023-02-17T08:14:24.828Z,89.75
2023-02-17T08:16:53.486Z,89.35
2023-02-17T08:19:22.153Z,88.81
2023-02-17T08:21:50.425Z,89.84
2023-02-17T08:24:19.560Z,88.72
2023-02-17T08:26:48.969Z,88.48
2023-02-17T08:29:17.705Z,88.31
2023-02-17T08:31:45.822Z,88.47
2023-02-17T08:34:15.915Z,88.02
2023-02-17T08:36:43.952Z,87.41
2023-02-17T08:39:14.094Z,87.63
2023-02-17T08:41:42.725Z,88.80
2023-02-17T08:44:14.360Z,86.97
2023-02-17T08:46:43.459Z,86.86
2023-02-17T08:49:12.233Z,87.27
2023-02-17T08:51:40.388Z,87.07
2023-02-17T08:54:12.333Z,87.60
2023-02-17T08:56:40.977Z,86.89
2023-02-17T08:59:10.493Z,87.59
2023-02-17T09:01:41.144Z,87.97
2023-02-17T09:04:10.843Z,87.46
2023-02-17T09:06:41.207Z,88.11
2023-02-17T09:09:11.275Z,88.80
2023-02-17T09:11:39.490Z,88.81
2023-02-17T09:14:17.060Z,89.01
2023-02-17T09:16:53.674Z,89.19
2023-02-17T09:19:24.199Z,88.73
2023-02-17T09:21:53.166Z,88.97
2023-02-17T09:24:21.473Z,88.70
2023-02-17T09:26:49.525Z,88.51
2023-02-17T09:29:17.834Z,88.95
2023-02-17T09:31:46.290Z,88.64
2023-02-17T09:34:16.280Z,88.34
2023-02-17T09:36:44.416Z,89.37
2023-02-17T09:39:14.701Z,89.02
2023-02-17T09:41:47.100Z,88.94
2023-02-17T09:44:21.922Z,89.45
2023-02-17T09:47:02.034Z,90.03
2023-02-17T09:49:37.510Z,90.00
2023-02-17T09:52:10.274Z,91.58
2023-02-17T09:54:44.918Z,91.95
2023-02-17T09:57:19.634Z,91.20
2023-02-17T09:59:50.755Z,91.41
2023-02-17T10:02:24.993Z,91.40
2023-02-17T10:04:55.338Z,91.32
2023-02-17T10:07:27.715Z,91.01
2023-02-17T10:09:59.440Z,90.72
2023-02-17T10:12:31.451Z,90.76
2023-02-17T10:15:05.696Z,91.21
2023-02-17T10:17:37.706Z,90.61
2023-02-17T10:20:10.944Z,90.10
2023-02-17T10:22:39.519Z,89.47
2023-02-17T10:25:15.987Z,89.39
2023-02-17T10:27:47.571Z,89.96
2023-02-17T10:30:24.614Z,89.89
2023-02-17T10:33:03.454Z,88.78
2023-02-17T10:35:45.713Z,89.32
2023-02-17T10:38:17.847Z,88.75
2023-02-17T10:40:48.385Z,88.48
2023-02-17T10:43:23.092Z,88.91
2023-02-17T10:45:53.315Z,88.94
2023-02-17T10:48:23.737Z,88.84
2023-02-17T10:50:55.025Z,89.05
2023-02-17T10:53:27.140Z,89.24
2023-02-17T10:56:01.168Z,89.10
2023-02-17T10:58:33.544Z,88.84
2023-02-17T11:01:02.579Z,88.48
2023-02-17T11:03:31.924Z,87.53
2023-02-17T11:06:03.267Z,87.67
2023-02-17T11:08:34.963Z,87.94
2023-02-17T11:11:05.621Z,87.74
2023-02-17T11:13:37.245Z,86.54
2023-02-17T11:16:06.674Z,86.20
2023-02-17T11:18:36.871Z,85.93
2023-02-17T11:21:09.110Z,85.94
2023-02-17T11:23:47.421Z,86.75
2023-02-17T11:26:19.665Z,87.31
2023-02-17T11:28:47.705Z,87.40
2023-02-17T11:31:25.204Z,87.53
2023-02-17T11:33:55.271Z,87.21
2023-02-17T11:36:28.129Z,87.61
2023-02-17T11:38:57.109Z,86.55
2023-02-17T11:41:25.473Z,86.33
2023-02-17T11:43:55.350Z,86.58
2023-02-17T11:46:29.380Z,86.19
2023-02-17T11:49:03.965Z,85.24
2023-02-17T11:51:40.726Z,84.19
2023-02-17T11:54:18.855Z,84.42
2023-02-17T11:56:52.470Z,84.22
2023-02-17T11:59:35.801Z,84.35
2023-02-17T12:02:18.450Z,84.39
2023-02-17T12:04:54.117Z,84.17
2023-02-17T12:07:42.658Z,85.25
2023-02-17T12:10:17.801Z,84.85
2023-02-17T12:12:59.297Z,84.56
2023-02-17T12:15:45.312Z,84.02
2023-02-17T12:18:25.066Z,84.24
2023-02-17T12:20:59.140Z,84.25
2023-02-17T12:23:50.234Z,84.48
2023-02-17T12:26:26.915Z,83.69
2023-02-17T12:29:05.346Z,83.53
2023-02-17T12:31:44.244Z,82.67
2023-02-17T12:34:18.869Z,82.52
2023-02-17T12:36:47.445Z,82.04
2023-02-17T12:39:21.597Z,81.64
2023-02-17T12:41:52.806Z,80.70
2023-02-17T12:44:23.954Z,80.99
2023-02-17T12:46:54.704Z,80.11
2023-02-17T12:49:26.275Z,79.38
2023-02-17T12:51:58.573Z,79.25
2023-02-17T12:54:33.833Z,79.51
2023-02-17T12:57:18.634Z,79.75
2023-02-17T12:59:50.299Z,79.77
2023-02-17T13:02:19.980Z,79.63
2023-02-17T13:04:50.773Z,79.64
2023-02-17T13:07:28.120Z,80.75
2023-02-17T13:09:57.991Z,80.53
2023-02-17T13:12:39.046Z,80.99
2023-02-17T13:15:27.112Z,81.23
2023-02-17T13:17:56.723Z,80.47
2023-02-17T13:20:28.364Z,80.71
2023-02-17T13:23:07.867Z,79.93
2023-02-17T13:25:38.141Z,79.05
2023-02-17T13:28:35.171Z,77.16
2023-02-17T13:31:17.747Z,77.55
2023-02-17T13:33:49.109Z,77.77
2023-02-17T13:36:21.564Z,77.94
2023-02-17T13:39:00.268Z,78.02
2023-02-17T13:41:34.407Z,78.21
2023-02-17T13:44:21.650Z,77.94
2023-02-17T13:46:50.066Z,79.04
2023-02-17T13:49:22.571Z,79.58
2023-02-17T13:51:50.901Z,79.96
2023-02-17T13:54:21.970Z,80.39
2023-02-17T13:56:56.153Z,80.43
2023-02-17T13:59:27.133Z,81.44
2023-02-17T14:01:55.873Z,81.68
2023-02-17T14:04:26.740Z,82.40
2023-02-17T14:06:56.241Z,82.07
2023-02-17T14:09:26.789Z,82.16
2023-02-17T14:11:57.581Z,82.32
2023-02-17T14:14:27.483Z,82.30
2023-02-17T14:17:04.069Z,82.35
2023-02-17T14:19:43.236Z,82.00
2023-02-17T14:22:24.692Z,82.19
2023-02-17T14:25:00.878Z,82.06
2023-02-17T14:27:41.838Z,82.79
2023-02-17T14:30:14.903Z,83.06
2023-02-17T14:32:43.852Z,82.29
2023-02-17T14:35:23.996Z,82.07
2023-02-17T14:37:52.293Z,82.28
2023-02-17T14:40:23.213Z,82.24
2023-02-17T14:42:52.995Z,81.08
2023-02-17T14:45:21.265Z,81.26
2023-02-17T14:47:49.732Z,81.26
2023-02-17T14:50:18.046Z,81.62
2023-02-17T14:52:47.488Z,81.14
2023-02-17T14:55:21.094Z,81.04
2023-02-17T14:57:49.341Z,81.41
2023-02-17T15:00:19.986Z,81.79
2023-02-17T15:02:48.430Z,82.61
2023-02-17T15:05:16.601Z,82.16
2023-02-17T15:07:45.019Z,82.23
2023-02-17T15:10:20.135Z,82.89
2023-02-17T15:12:48.428Z,82.88
2023-02-17T15:15:18.840Z,83.41
2023-02-17T15:17:47.313Z,83.44
2023-02-17T15:20:17.364Z,83.79
2023-02-17T15:22:45.674Z,84.01
2023-02-17T15:25:16.010Z,84.66
2023-02-17T15:27:44.847Z,84.47
2023-02-17T15:30:14.188Z,84.51
2023-02-17T15:32:44.470Z,84.66
2023-02-17T15:35:20.082Z,84.83
2023-02-17T15:37:48.741Z,85.16
2023-02-17T15:40:18.497Z,85.72
2023-02-17T15:42:48.259Z,85.68
2023-02-17T15:45:18.831Z,86.39
2023-02-17T15:47:49.372Z,87.18
2023-02-17T15:50:21.290Z,87.28
2023-02-17T15:52:50.687Z,87.60
2023-02-17T15:55:19.717Z,87.29
2023-02-17T15:57:49.749Z,86.89
2023-02-17T16:00:23.322Z,87.58
2023-02-17T16:02:53.787Z,87.50
2023-02-17T16:05:27.189Z,87.58
2023-02-17T16:07:56.017Z,87.58
2023-02-17T16:10:27.064Z,87.31
2023-02-17T16:12:57.149Z,87.85
2023-02-17T16:15:26.711Z,88.67
2023-02-17T16:17:57.598Z,87.91
2023-02-17T16:20:27.057Z,88.44
2023-02-17T16:22:55.386Z,88.10
2023-02-17T16:25:23.691Z,88.02
2023-02-17T16:27:53.114Z,88.61
2023-02-17T16:30:23.363Z,88.11
2023-02-17T16:32:53.665Z,88.34
2023-02-17T16:35:25.887Z,88.43
2023-02-17T16:37:56.285Z,87.80
2023-02-17T16:40:25.689Z,87.89
2023-02-17T16:42:54.135Z,87.94
2023-02-17T16:45:24.604Z,87.42
2023-02-17T16:47:56.039Z,88.07
2023-02-17T16:50:27.858Z,88.18
2023-02-17T16:52:58.794Z,88.36
2023-02-17T16:55:29.109Z,87.63
2023-02-17T16:57:58.655Z,87.79
2023-02-17T17:00:29.636Z,87.57
2023-02-17T17:02:58.705Z,87.39
2023-02-17T17:05:29.527Z,87.86
2023-02-17T17:07:58.041Z,88.48
2023-02-17T17:10:29.472Z,88.41
2023-02-17T17:12:58.457Z,88.83
2023-02-17T17:15:26.502Z,88.24
2023-02-17T17:17:57.948Z,87.89
2023-02-17T17:20:31.943Z,87.65
2023-02-17T17:23:01.125Z,87.12
2023-02-17T17:25:29.731Z,87.33
2023-02-17T17:27:58.761Z,87.79
2023-02-17T17:30:29.435Z,87.46
2023-02-17T17:32:57.709Z,86.78
2023-02-17T17:35:26.917Z,87.21
2023-02-17T17:37:57.421Z,87.40
2023-02-17T17:40:27.753Z,86.54
2023-02-17T17:42:57.177Z,86.39
2023-02-17T17:45:25.739Z,87.29
2023-02-17T17:47:54.428Z,86.95
2023-02-17T17:50:24.789Z,87.36
2023-02-17T17:52:53.239Z,87.77
2023-02-17T17:55:24.212Z,88.04
2023-02-17T17:57:53.608Z,88.37
2023-02-17T18:00:23.910Z,87.20
2023-02-17T18:02:52.230Z,87.58
2023-02-17T18:05:20.352Z,87.57
2023-02-17T18:07:49.933Z,87.63
2023-02-17T18:10:18.196Z,86.98
2023-02-17T18:12:48.470Z,87.27
2023-02-17T18:15:17.441Z,87.88
2023-02-17T18:17:46.455Z,87.59
2023-02-17T18:20:14.669Z,87.94
2023-02-17T18:22:42.996Z,88.23
2023-02-17T18:25:11.384Z,88.64
2023-02-17T18:27:41.543Z,88.38
2023-02-17T18:30:13.376Z,89.46
2023-02-17T18:32:43.324Z,89.73
2023-02-17T18:35:12.810Z,89.30
2023-02-17T18:37:41.557Z,89.08
2023-02-17T18:40:12.640Z,88.87
2023-02-17T18:42:41.264Z,88.45
2023-02-17T18:45:11.352Z,88.37
2023-02-17T18:47:39.672Z,87.32
2023-02-17T18:50:09.466Z,87.41
2023-02-17T18:52:38.015Z,86.94
2023-02-17T18:55:06.758Z,87.09
2023-02-17T18:57:35.654Z,86.24
2023-02-17T19:00:04.554Z,86.62
2023-02-17T19:02:36.590Z,85.70
2023-02-17T19:05:05.171Z,85.01
2023-02-17T19:07:34.032Z,85.18
2023-02-17T19:10:02.165Z,85.41
2023-02-17T19:12:30.402Z,85.18
2023-02-17T19:14:58.670Z,85.03
2023-02-17T19:17:27.010Z,84.90
2023-02-17T19:19:56.510Z,84.62
2023-02-17T19:22:24.765Z,85.49
2023-02-17T19:24:54.505Z,84.41
2023-02-17T19:27:22.944Z,84.13
2023-02-17T19:29:50.935Z,85.06
2023-02-17T19:32:19.471Z,85.08
2023-02-17T19:34:47.631Z,85.13
2023-02-17T19:37:17.312Z,85.06
2023-02-17T19:39:45.493Z,85.30
2023-02-17T19:42:13.933Z,86.10
2023-02-17T19:44:42.025Z,85.68
2023-02-17T19:47:10.293Z,86.01
2023-02-17T19:49:38.375Z,86.05
2023-02-17T19:52:07.404Z,85.50
2023-02-17T19:54:37.237Z,85.13
2023-02-17T19:57:05.678Z,84.89
2023-02-17T19:59:34.402Z,85.40
2023-02-17T20:02:02.737Z,86.31
2023-02-17T20:04:30.886Z,85.16
2023-02-17T20:06:59.500Z,85.55
2023-02-17T20:09:28.143Z,85.85
2023-02-17T20:11:57.791Z,85.20
2023-02-17T20:14:25.811Z,85.21
2023-02-17T20:16:55.534Z,85.68
2023-02-17T20:19:23.759Z,85.45
2023-02-17T20:21:52.080Z,86.02
2023-02-17T20:24:20.064Z,86.06
2023-02-17T20:26:48.912Z,86.67
2023-02-17T20:29:18.570Z,86.35
2023-02-17T20:31:46.965Z,86.26
2023-02-17T20:34:27.365Z,86.39
2023-02-17T20:36:55.950Z,85.82
2023-02-17T20:39:25.660Z,86.39
2023-02-17T20:41:54.634Z,85.90
2023-02-17T20:44:27.720Z,85.35
2023-02-17T20:46:57.214Z,86.12
2023-02-17T20:49:25.526Z,85.89
2023-02-17T20:51:54.351Z,85.73
2023-02-17T20:54:27.256Z,85.79
2023-02-17T20:56:57.514Z,86.25
2023-02-17T20:59:27.081Z,86.09
2023-02-17T21:01:55.640Z,85.38
2023-02-17T21:04:23.904Z,85.33
2023-02-17T21:06:52.247Z,85.08
2023-02-17T21:09:20.912Z,85.54
2023-02-17T21:11:49.252Z,85.14
2023-02-17T21:14:17.352Z,86.06
2023-02-17T21:16:47.456Z,86.58
2023-02-17T21:19:15.658Z,86.40
2023-02-17T21:21:43.919Z,85.71
2023-02-17T21:24:12.180Z,86.49
2023-02-17T21:26:40.579Z,86.53
2023-02-17T21:29:08.667Z,86.30
2023-02-17T21:31:37.155Z,85.95
2023-02-17T21:34:07.100Z,86.65
2023-02-17T21:36:35.857Z,86.55
2023-02-17T21:39:04.262Z,87.00
2023-02-17T21:41:32.841Z,86.63
2023-02-17T21:44:18.769Z,86.03
2023-02-17T21:46:47.058Z,86.36
2023-02-17T21:49:16.386Z,86.26
2023-02-17T21:51:44.752Z,85.54
2023-02-17T21:54:12.816Z,85.99
2023-02-17T21:56:41.137Z,86.41
2023-02-17T21:59:09.671Z,86.48
2023-02-17T22:01:38.221Z,86.53
2023-02-17T22:04:06.693Z,86.88
2023-02-17T22:06:38.235Z,86.86
2023-02-17T22:09:07.815Z,86.81
2023-02-17T22:11:37.447Z,86.95
2023-02-17T22:14:07.212Z,86.96
2023-02-17T22:16:36.302Z,86.46
2023-02-17T22:19:06.032Z,86.47
2023-02-17T22:21:35.995Z,86.21
2023-02-17T22:24:04.073Z,87.32
2023-02-17T22:26:32.795Z,86.30
2023-02-17T22:29:00.917Z,86.76
2023-02-17T22:31:30.749Z,86.62
2023-02-17T22:34:00.455Z,86.64
2023-02-17T22:36:34.921Z,87.05
2023-02-17T22:39:07.407Z,87.23
2023-02-17T22:41:41.288Z,86.63
2023-02-17T22:44:14.810Z,86.76
2023-02-17T22:47:08.248Z,86.88
2023-02-17T22:49:42.177Z,85.91
2023-02-17T22:52:38.308Z,86.91
2023-02-17T22:55:12.092Z,86.84
2023-02-17T22:57:48.053Z,86.72
2023-02-17T23:00:22.375Z,86.62
2023-02-17T23:02:56.221Z,86.33
2023-02-17T23:05:51.438Z,86.79
2023-02-17T23:08:27.318Z,86.46
2023-02-17T23:11:04.932Z,87.04
2023-02-17T23:13:43.868Z,87.20
2023-02-17T23:16:23.571Z,87.36
2023-02-17T23:19:01.789Z,87.51
2023-02-17T23:21:32.807Z,86.91
2023-02-17T23:24:11.001Z,87.03
2023-02-17T23:26:45.505Z,86.29
2023-02-17T23:29:18.214Z,86.51
2023-02-17T23:32:10.214Z,86.94
2023-02-17T23:34:47.557Z,87.08
2023-02-17T23:37:18.295Z,87.00
2023-02-17T23:39:53.518Z,87.55
2023-02-17T23:42:30.122Z,87.58
2023-02-17T23:45:07.216Z,87.98
2023-02-17T23:47:40.388Z,87.82
2023-02-17T23:50:15.025Z,88.36
2023-02-17T23:53:07.450Z,88.22
2023-02-17T23:55:40.849Z,87.03
2023-02-17T23:58:12.924Z,87.18
